createdAt,value
2022-10-17T00:01:54.914Z,13.60
2022-10-17T00:04:23.153Z,13.60
2022-10-17T00:06:51.269Z,13.50
2022-10-17T00:09:22.799Z,13.50
2022-10-17T00:11:52.972Z,13.50
2022-10-17T00:14:21.099Z,13.50
2022-10-17T00:16:49.197Z,13.50
2022-10-17T00:19:17.298Z,13.50
2022-10-17T00:21:45.392Z,13.40
2022-10-17T00:24:13.514Z,13.40
2022-10-17T00:26:42.994Z,13.40
2022-10-17T00:29:11.292Z,13.40
2022-10-17T00:31:41.551Z,13.40
2022-10-17T00:34:09.674Z,13.40
2022-10-17T00:36:37.781Z,13.40
2022-10-17T00:39:06.081Z,13.40
2022-10-17T00:41:35.600Z,13.30
2022-10-17T00:44:29.047Z,13.30
2022-10-17T00:47:01.802Z,13.30
2022-10-17T00:49:33.850Z,13.30
2022-10-17T00:52:05.944Z,13.30
2022-10-17T00:54:38.608Z,13.30
2022-10-17T00:57:07.578Z,13.30
2022-10-17T00:59:39.116Z,13.30
2022-10-17T01:02:13.575Z,13.30
2022-10-17T01:04:43.914Z,13.20
2022-10-17T01:07:14.547Z,13.20
2022-10-17T01:09:43.436Z,13.20
2022-10-17T01:12:19.803Z,13.20
2022-10-17T01:14:59.186Z,13.20
2022-10-17T01:17:35.994Z,13.20
2022-10-17T01:20:47.502Z,13.20
2022-10-17T01:23:29.246Z,13.20
2022-10-17T01:26:05.887Z,13.20
2022-10-17T01:29:02.557Z,13.20
2022-10-17T01:31:39.612Z,13.20
2022-10-17T01:34:15.635Z,13.20
2022-10-17T01:36:51.287Z,13.20
2022-10-17T01:39:36.816Z,13.20
2022-10-17T01:42:15.093Z,13.20
2022-10-17T01:44:50.920Z,13.20
2022-10-17T01:47:27.086Z,13.20
2022-10-17T01:49:59.343Z,13.20
2022-10-17T01:52:34.837Z,13.20
2022-10-17T01:55:09.231Z,13.20
2022-10-17T01:57:41.008Z,13.20
2022-10-17T02:00:14.760Z,13.20
2022-10-17T02:02:46.245Z,13.20
2022-10-17T02:05:14.457Z,13.20
2022-10-17T02:07:44.679Z,13.20
2022-10-17T02:10:20.551Z,13.20
2022-10-17T02:12:55.818Z,13.20
2022-10-17T02:15:43.914Z,13.20
2022-10-17T02:18:25.128Z,13.20
2022-10-17T02:20:58.214Z,13.20
2022-10-17T02:23:38.895Z,13.20
2022-10-17T02:26:13.102Z,13.20
2022-10-17T02:28:47.695Z,13.20
2022-10-17T02:31:21.718Z,13.20
2022-10-17T02:33:59.580Z,13.20
2022-10-17T02:36:35.454Z,13.20
2022-10-17T02:39:05.297Z,13.20
2022-10-17T02:41:34.466Z,13.20
2022-10-17T02:44:05.854Z,13.20
2022-10-17T02:46:34.962Z,13.10
2022-10-17T02:49:10.184Z,13.10
2022-10-17T02:51:45.983Z,13.10
2022-10-17T02:54:21.134Z,13.10
2022-10-17T02:56:55.882Z,13.10
2022-10-17T02:59:26.548Z,13.10
2022-10-17T03:01:55.605Z,13.10
2022-10-17T03:04:27.394Z,13.10
2022-10-17T03:06:55.537Z,13.00
2022-10-17T03:09:24.472Z,13.00
2022-10-17T03:11:52.652Z,13.00
2022-10-17T03:14:22.935Z,13.00
2022-10-17T03:16:51.050Z,13.00
2022-10-17T03:19:21.358Z,13.00
2022-10-17T03:21:50.870Z,13.00
2022-10-17T03:24:21.342Z,13.00
2022-10-17T03:26:49.503Z,13.00
2022-10-17T03:29:17.640Z,13.00
2022-10-17T03:31:45.821Z,13.00
2022-10-17T03:34:16.740Z,13.00
2022-10-17T03:36:45.067Z,13.00
2022-10-17T03:39:17.571Z,13.00
2022-10-17T03:41:45.785Z,13.00
2022-10-17T03:44:16.395Z,13.00
2022-10-17T03:46:44.625Z,13.00
2022-10-17T03:49:12.926Z,13.00
2022-10-17T03:51:43.522Z,13.00
2022-10-17T03:54:41.429Z,13.00
2022-10-17T03:57:09.556Z,13.00
2022-10-17T03:59:37.996Z,13.00
2022-10-17T04:02:11.764Z,13.00
2022-10-17T04:04:39.913Z,12.90
2022-10-17T04:07:08.318Z,12.90
2022-10-17T04:09:41.167Z,12.90
2022-10-17T04:12:14.022Z,12.90
2022-10-17T04:14:42.123Z,12.90
2022-10-17T04:17:10.417Z,12.90
2022-10-17T04:19:39.773Z,12.90
2022-10-17T04:22:08.666Z,12.90
2022-10-17T04:24:40.916Z,12.90
2022-10-17T04:27:11.385Z,12.90
2022-10-17T04:29:44.235Z,12.90
2022-10-17T04:32:22.861Z,12.90
2022-10-17T04:35:20.598Z,12.80
2022-10-17T04:37:54.225Z,12.90
2022-10-17T04:40:23.923Z,12.90
2022-10-17T04:42:54.393Z,12.90
2022-10-17T04:45:27.565Z,12.90
2022-10-17T04:47:59.565Z,12.90
2022-10-17T04:50:27.904Z,12.90
2022-10-17T04:53:29.380Z,12.90
2022-10-17T04:55:59.353Z,12.90
2022-10-17T04:58:29.713Z,13.00
2022-10-17T05:01:00.065Z,12.90
2022-10-17T05:03:30.649Z,13.00
2022-10-17T05:05:58.852Z,12.90
2022-10-17T05:08:29.993Z,13.00
2022-10-17T05:13:33.240Z,13.00
2022-10-17T05:16:02.474Z,13.10
2022-10-17T05:18:30.651Z,13.00
2022-10-17T05:20:58.855Z,13.10
2022-10-17T05:23:27.066Z,13.10
2022-10-17T05:25:58.937Z,13.10
2022-10-17T05:28:28.423Z,13.10
2022-10-17T05:31:04.509Z,13.10
2022-10-17T05:33:32.859Z,13.10
2022-10-17T05:36:01.974Z,13.10
2022-10-17T05:38:30.232Z,13.10
2022-10-17T05:41:01.185Z,13.10
2022-10-17T05:43:29.904Z,13.20
2022-10-17T05:45:58.111Z,13.20
2022-10-17T05:48:26.378Z,13.20
2022-10-17T05:51:00.622Z,13.20
2022-10-17T05:53:32.102Z,13.30
2022-10-17T05:56:08.104Z,13.30
2022-10-17T05:58:49.894Z,13.30
2022-10-17T06:01:32.187Z,13.30
2022-10-17T06:04:00.398Z,13.30
2022-10-17T06:06:28.675Z,13.30
2022-10-17T06:08:56.920Z,13.30
2022-10-17T06:11:32.724Z,13.30
2022-10-17T06:14:01.188Z,13.30
2022-10-17T06:16:31.587Z,13.30
2022-10-17T06:19:00.615Z,13.30
2022-10-17T06:21:29.237Z,13.40
2022-10-17T06:24:06.114Z,13.30
2022-10-17T06:26:38.505Z,13.40
2022-10-17T06:29:08.671Z,13.40
2022-10-17T06:31:42.622Z,13.40
2022-10-17T06:34:10.832Z,13.40
2022-10-17T06:36:41.831Z,13.50
2022-10-17T06:39:11.203Z,13.50
2022-10-17T06:41:54.656Z,13.50
2022-10-17T06:44:36.717Z,13.50
2022-10-17T06:47:40.298Z,13.60
2022-10-17T06:50:26.978Z,13.60
2022-10-17T06:53:12.441Z,13.60
2022-10-17T06:56:04.748Z,13.60
2022-10-17T06:58:54.790Z,13.70
2022-10-17T07:01:36.030Z,13.70
2022-10-17T07:04:06.176Z,13.70
2022-10-17T07:06:35.524Z,13.70
2022-10-17T07:09:09.874Z,13.80
2022-10-17T07:11:40.189Z,13.80
2022-10-17T07:14:10.047Z,13.90
2022-10-17T07:16:38.874Z,13.90
2022-10-17T07:19:14.197Z,13.90
2022-10-17T07:21:44.612Z,13.90
2022-10-17T07:24:14.790Z,13.90
2022-10-17T07:26:48.535Z,14.00
2022-10-17T07:29:18.454Z,14.10
2022-10-17T07:32:09.801Z,14.10
2022-10-17T07:34:38.370Z,14.10
2022-10-17T07:37:09.895Z,14.20
2022-10-17T07:39:40.360Z,14.20
2022-10-17T07:42:11.726Z,14.20
2022-10-17T07:44:41.570Z,14.20
2022-10-17T07:47:10.554Z,14.30
2022-10-17T07:49:42.429Z,14.30
2022-10-17T07:52:11.365Z,14.40
2022-10-17T07:54:39.630Z,14.40
2022-10-17T07:57:08.376Z,14.50
2022-10-17T07:59:41.100Z,14.40
2022-10-17T08:02:19.828Z,14.50
2022-10-17T08:04:47.973Z,14.60
2022-10-17T08:07:23.262Z,14.60
2022-10-17T08:09:55.095Z,14.70
2022-10-17T08:12:26.170Z,14.80
2022-10-17T08:14:55.651Z,14.90
2022-10-17T08:17:23.717Z,14.90
2022-10-17T08:19:51.949Z,15.00
2022-10-17T08:22:20.069Z,15.10
2022-10-17T08:24:50.486Z,15.10
2022-10-17T08:27:24.836Z,15.20
2022-10-17T08:29:54.148Z,15.20
2022-10-17T08:32:28.156Z,15.30
2022-10-17T08:34:57.214Z,15.30
2022-10-17T08:37:25.322Z,15.40
2022-10-17T08:39:53.508Z,15.50
2022-10-17T08:42:43.292Z,15.50
2022-10-17T08:45:22.009Z,15.60
2022-10-17T08:47:59.665Z,15.70
2022-10-17T08:50:36.008Z,15.70
2022-10-17T08:53:12.610Z,15.70
2022-10-17T08:55:45.497Z,15.80
2022-10-17T08:58:16.339Z,15.90
2022-10-17T09:00:53.238Z,15.90
2022-10-17T09:03:44.164Z,16.00
2022-10-17T09:06:20.573Z,16.00
2022-10-17T09:08:59.199Z,16.10
2022-10-17T09:11:45.858Z,16.20
2022-10-17T09:14:43.820Z,16.30
2022-10-17T09:17:24.080Z,16.40
2022-10-17T09:20:00.872Z,16.40
2022-10-17T09:22:38.690Z,16.50
2022-10-17T09:25:12.589Z,16.60
2022-10-17T09:27:45.522Z,16.80
2022-10-17T09:30:47.203Z,16.90
2022-10-17T09:33:35.632Z,17.00
2022-10-17T09:36:14.341Z,17.10
2022-10-17T09:38:48.439Z,17.20
2022-10-17T09:41:44.103Z,17.30
2022-10-17T09:44:17.732Z,17.30
2022-10-17T09:46:56.746Z,17.40
2022-10-17T09:49:34.565Z,17.50
2022-10-17T09:52:06.375Z,17.60
2022-10-17T09:54:44.792Z,17.60
2022-10-17T09:57:17.043Z,17.70
2022-10-17T09:59:48.429Z,17.70
2022-10-17T10:02:20.873Z,17.80
2022-10-17T10:05:17.381Z,17.80
2022-10-17T10:08:03.542Z,17.90
2022-10-17T10:10:33.194Z,17.90
2022-10-17T10:13:07.671Z,18.00
2022-10-17T10:15:38.960Z,18.10
2022-10-17T10:21:08.936Z,18.20
2022-10-17T10:23:40.495Z,18.30
2022-10-17T10:26:24.509Z,18.30
2022-10-17T10:29:02.831Z,18.30
2022-10-17T10:31:34.610Z,18.40
2022-10-17T10:34:14.895Z,18.40
2022-10-17T10:37:04.335Z,18.40
2022-10-17T10:39:49.748Z,18.50
2022-10-17T10:42:25.923Z,18.50
2022-10-17T10:44:56.031Z,18.50
2022-10-17T10:47:26.593Z,18.50
2022-10-17T10:50:10.148Z,18.50
2022-10-17T10:52:44.466Z,18.50
2022-10-17T10:55:23.742Z,18.50
2022-10-17T10:57:55.959Z,18.50
2022-10-17T11:00:27.563Z,18.50
2022-10-17T11:03:03.865Z,18.50
2022-10-17T11:05:42.891Z,18.50
2022-10-17T11:08:21.415Z,18.50
2022-10-17T11:11:01.968Z,18.50
2022-10-17T11:13:37.344Z,18.50
2022-10-17T11:16:20.461Z,18.40
2022-10-17T11:18:51.835Z,18.40
2022-10-17T11:21:26.588Z,18.40
2022-10-17T11:24:00.310Z,18.40
2022-10-17T11:26:36.739Z,18.40
2022-10-17T11:29:08.145Z,18.40
2022-10-17T11:31:40.396Z,18.40
2022-10-17T11:34:12.812Z,18.40
2022-10-17T11:36:45.271Z,18.40
2022-10-17T11:39:17.275Z,18.30
2022-10-17T11:41:51.927Z,18.40
2022-10-17T11:44:24.712Z,18.40
2022-10-17T11:46:59.685Z,18.30
2022-10-17T11:49:33.974Z,18.30
2022-10-17T11:52:44.438Z,18.30
2022-10-17T11:55:18.432Z,18.30
2022-10-17T11:58:03.083Z,18.30
2022-10-17T12:00:49.811Z,18.30
2022-10-17T12:03:30.904Z,18.30
2022-10-17T12:06:05.319Z,18.30
2022-10-17T12:08:42.643Z,18.30
2022-10-17T12:11:22.313Z,18.30
2022-10-17T12:13:54.587Z,18.30
2022-10-17T12:16:46.783Z,18.20
2022-10-17T12:19:25.491Z,18.20
2022-10-17T12:22:05.351Z,18.20
2022-10-17T12:24:39.876Z,18.20
2022-10-17T12:27:43.736Z,18.20
2022-10-17T12:30:25.971Z,18.20
2022-10-17T12:33:07.974Z,18.20
2022-10-17T12:35:44.773Z,18.20
2022-10-17T12:38:36.612Z,18.20
2022-10-17T12:41:07.614Z,18.20
2022-10-17T12:43:56.843Z,18.20
2022-10-17T12:46:59.753Z,18.20
2022-10-17T12:49:49.675Z,18.20
2022-10-17T12:52:49.285Z,18.20
2022-10-17T12:55:18.999Z,18.20
2022-10-17T12:57:54.451Z,18.10
2022-10-17T13:00:35.861Z,18.10
2022-10-17T13:03:11.786Z,18.10
2022-10-17T13:05:44.572Z,18.10
2022-10-17T13:08:18.899Z,18.10
2022-10-17T13:10:51.727Z,18.10
2022-10-17T13:13:23.117Z,18.10
2022-10-17T13:15:53.189Z,18.10
2022-10-17T13:18:25.217Z,18.10
2022-10-17T13:20:58.442Z,18.10
2022-10-17T13:23:32.443Z,18.00
2022-10-17T13:26:08.687Z,18.00
2022-10-17T13:28:39.845Z,18.00
2022-10-17T13:31:08.892Z,18.00
2022-10-17T13:33:42.380Z,18.00
2022-10-17T13:36:18.953Z,17.90
2022-10-17T13:38:47.830Z,17.90
2022-10-17T13:41:36.193Z,17.90
2022-10-17T13:44:11.947Z,17.90
2022-10-17T13:46:41.087Z,17.90
2022-10-17T13:49:22.265Z,17.90
2022-10-17T13:51:54.867Z,17.90
2022-10-17T13:54:42.009Z,17.90
2022-10-17T13:57:21.018Z,17.80
2022-10-17T13:59:53.148Z,17.80
2022-10-17T14:02:23.579Z,17.80
2022-10-17T14:05:19.740Z,17.70
2022-10-17T14:10:43.411Z,17.70
2022-10-17T14:13:23.368Z,17.70
2022-10-17T14:15:52.394Z,17.70
2022-10-17T14:18:26.138Z,17.70
2022-10-17T14:21:34.075Z,17.70
2022-10-17T14:23:46.351Z,17.70
2022-10-17T14:26:17.149Z,17.60
2022-10-17T14:28:48.071Z,17.60
2022-10-17T14:31:26.654Z,17.60
2022-10-17T14:33:55.341Z,17.60
2022-10-17T14:36:36.933Z,17.60
2022-10-17T14:39:11.880Z,17.70
2022-10-17T14:41:45.587Z,17.70
2022-10-17T14:44:30.123Z,17.60
2022-10-17T14:47:03.451Z,17.60
2022-10-17T14:49:39.566Z,17.60
2022-10-17T14:52:27.457Z,17.60
2022-10-17T14:54:56.085Z,17.60
2022-10-17T14:57:30.706Z,17.60
2022-10-17T14:59:59.310Z,17.70
2022-10-17T15:02:31.318Z,17.60
2022-10-17T15:04:59.757Z,17.60
2022-10-17T15:07:29.510Z,17.70
2022-10-17T15:09:57.648Z,17.70
2022-10-17T15:12:27.046Z,17.70
2022-10-17T15:14:55.452Z,17.70
2022-10-17T15:17:28.416Z,17.70
2022-10-17T15:19:59.359Z,17.70
2022-10-17T15:22:29.454Z,17.70
2022-10-17T15:24:57.737Z,17.70
2022-10-17T15:27:29.613Z,17.70
2022-10-17T15:29:58.015Z,17.70
2022-10-17T15:32:26.206Z,17.70
2022-10-17T15:34:54.368Z,17.70
2022-10-17T15:37:25.129Z,17.70
2022-10-17T15:39:56.171Z,17.70
2022-10-17T15:42:27.890Z,17.70
2022-10-17T15:44:56.490Z,17.70
2022-10-17T15:47:28.008Z,17.70
2022-10-17T15:49:56.771Z,17.70
2022-10-17T15:52:25.421Z,17.70
2022-10-17T15:54:57.349Z,17.70
2022-10-17T15:57:30.313Z,17.60
2022-10-17T16:00:00.501Z,17.60
2022-10-17T16:02:29.084Z,17.60
2022-10-17T16:04:57.249Z,17.60
2022-10-17T16:07:25.387Z,17.60
2022-10-17T16:09:54.961Z,17.50
2022-10-17T16:12:30.061Z,17.50
2022-10-17T16:15:00.588Z,17.50
2022-10-17T16:17:29.045Z,17.50
2022-10-17T16:19:57.282Z,17.50
2022-10-17T16:22:32.439Z,17.40
2022-10-17T16:25:09.404Z,17.40
2022-10-17T16:27:38.695Z,17.40
2022-10-17T16:30:09.057Z,17.40
2022-10-17T16:32:39.494Z,17.40
2022-10-17T16:35:09.006Z,17.40
2022-10-17T16:37:37.273Z,17.30
2022-10-17T16:40:07.911Z,17.30
2022-10-17T16:42:36.332Z,17.30
2022-10-17T16:45:04.970Z,17.30
2022-10-17T16:47:35.292Z,17.30
2022-10-17T16:50:03.526Z,17.20
2022-10-17T16:52:31.953Z,17.30
2022-10-17T16:55:00.427Z,17.20
2022-10-17T16:57:29.996Z,17.20
2022-10-17T16:59:58.186Z,17.20
2022-10-17T17:02:26.450Z,17.20
2022-10-17T17:04:54.663Z,17.20
2022-10-17T17:07:24.601Z,17.10
2022-10-17T17:09:53.734Z,17.10
2022-10-17T17:12:22.285Z,17.10
2022-10-17T17:14:52.864Z,17.10
2022-10-17T17:17:30.578Z,17.10
2022-10-17T17:20:12.423Z,17.10
2022-10-17T17:22:41.881Z,17.10
2022-10-17T17:25:11.750Z,17.10
2022-10-17T17:27:40.383Z,17.10
2022-10-17T17:30:11.501Z,17.10
2022-10-17T17:32:40.062Z,17.10
2022-10-17T17:35:09.586Z,17.00
2022-10-17T17:37:39.559Z,17.00
2022-10-17T17:40:10.945Z,17.00
2022-10-17T17:42:40.589Z,17.00
2022-10-17T17:45:12.586Z,17.00
2022-10-17T17:47:40.879Z,17.00
2022-10-17T17:50:09.811Z,16.90
2022-10-17T17:52:40.073Z,16.90
2022-10-17T17:55:09.146Z,16.90
2022-10-17T17:57:37.455Z,16.90
2022-10-17T18:00:07.449Z,16.90
2022-10-17T18:02:40.728Z,16.90
2022-10-17T18:05:11.855Z,16.90
2022-10-17T18:07:40.119Z,16.80
2022-10-17T18:12:43.143Z,16.80
2022-10-17T18:15:11.948Z,16.80
2022-10-17T18:17:42.171Z,16.70
2022-10-17T18:20:11.403Z,16.70
2022-10-17T18:22:39.765Z,16.70
2022-10-17T18:25:08.724Z,16.70
2022-10-17T18:27:36.969Z,16.60
2022-10-17T18:30:06.021Z,16.60
2022-10-17T18:32:34.461Z,16.60
2022-10-17T18:35:04.312Z,16.60
2022-10-17T18:37:32.587Z,16.60
2022-10-17T18:40:03.026Z,16.50
2022-10-17T18:42:31.488Z,16.50
2022-10-17T18:45:00.006Z,16.50
2022-10-17T18:47:29.528Z,16.50
2022-10-17T18:49:58.086Z,16.40
2022-10-17T18:52:27.692Z,16.40
2022-10-17T18:54:55.933Z,16.40
2022-10-17T18:57:26.157Z,16.30
2022-10-17T18:59:54.686Z,16.30
2022-10-17T19:02:22.959Z,16.30
2022-10-17T19:04:51.272Z,16.30
2022-10-17T19:07:20.182Z,16.20
2022-10-17T19:09:50.997Z,16.20
2022-10-17T19:12:21.754Z,16.20
2022-10-17T19:14:52.962Z,16.20
2022-10-17T19:17:21.331Z,16.20
2022-10-17T19:19:51.837Z,16.20
2022-10-17T19:22:20.127Z,16.10
2022-10-17T19:24:48.284Z,16.10
2022-10-17T19:27:20.646Z,16.10
2022-10-17T19:29:48.762Z,16.10
2022-10-17T19:32:19.238Z,16.10
2022-10-17T19:34:51.060Z,16.10
2022-10-17T19:37:19.184Z,16.10
2022-10-17T19:39:49.975Z,16.10
2022-10-17T19:42:19.598Z,16.10
2022-10-17T19:44:47.709Z,16.00
2022-10-17T19:47:15.844Z,16.00
2022-10-17T19:49:49.910Z,16.00
2022-10-17T19:52:20.901Z,16.00
2022-10-17T19:54:49.024Z,16.00
2022-10-17T19:57:17.179Z,16.00
2022-10-17T19:59:50.294Z,16.00
2022-10-17T20:02:20.563Z,15.90
2022-10-17T20:04:59.874Z,15.90
2022-10-17T20:07:36.801Z,15.90
2022-10-17T20:10:06.044Z,15.90
2022-10-17T20:12:34.832Z,15.90
2022-10-17T20:15:05.964Z,15.90
2022-10-17T20:17:36.185Z,15.90
2022-10-17T20:20:08.524Z,15.90
2022-10-17T20:22:37.055Z,15.90
2022-10-17T20:25:07.990Z,15.80
2022-10-17T20:27:36.171Z,15.90
2022-10-17T20:30:06.721Z,15.80
2022-10-17T20:32:39.536Z,15.80
2022-10-17T20:35:10.820Z,15.80
2022-10-17T20:37:42.663Z,15.80
2022-10-17T20:43:00.331Z,15.80
2022-10-17T20:45:44.218Z,15.80
2022-10-17T20:48:20.164Z,15.80
2022-10-17T20:50:48.850Z,15.70
2022-10-17T20:53:36.091Z,15.70
2022-10-17T20:56:09.759Z,15.70
2022-10-17T20:58:38.017Z,15.70
2022-10-17T21:01:09.027Z,15.70
2022-10-17T21:03:39.762Z,15.70
2022-10-17T21:06:13.163Z,15.60
2022-10-17T21:08:41.305Z,15.60
2022-10-17T21:11:13.314Z,15.60
2022-10-17T21:13:41.916Z,15.60
2022-10-17T21:16:15.303Z,15.50
2022-10-17T21:18:46.819Z,15.50
2022-10-17T21:21:18.652Z,15.50
2022-10-17T21:23:48.665Z,15.50
2022-10-17T21:26:20.056Z,15.50
2022-10-17T21:28:49.821Z,15.50
2022-10-17T21:31:23.122Z,15.50
2022-10-17T21:33:53.678Z,15.50
2022-10-17T21:36:22.827Z,15.40
2022-10-17T21:38:53.137Z,15.40
2022-10-17T21:41:23.258Z,15.40
2022-10-17T21:43:55.219Z,15.40
2022-10-17T21:46:24.911Z,15.40
2022-10-17T21:48:53.619Z,15.40
2022-10-17T21:51:24.145Z,15.40
2022-10-17T21:53:56.229Z,15.40
2022-10-17T21:56:28.020Z,15.30
2022-10-17T21:58:56.465Z,15.30
2022-10-17T22:01:27.633Z,15.30
2022-10-17T22:03:57.684Z,15.30
2022-10-17T22:06:41.826Z,15.30
2022-10-17T22:09:13.901Z,15.30
2022-10-17T22:11:42.242Z,15.30
2022-10-17T22:14:14.322Z,15.20
2022-10-17T22:16:45.124Z,15.20
2022-10-17T22:19:17.090Z,15.20
2022-10-17T22:21:45.513Z,15.20
2022-10-17T22:24:15.799Z,15.20
2022-10-17T22:26:44.530Z,15.20
2022-10-17T22:29:15.054Z,15.20
2022-10-17T22:31:44.735Z,15.10
2022-10-17T22:34:16.856Z,15.10
2022-10-17T22:36:47.777Z,15.10
2022-10-17T22:39:16.079Z,15.10
2022-10-17T22:41:44.155Z,15.00
2022-10-17T22:44:12.209Z,15.00
2022-10-17T22:46:40.774Z,15.00
2022-10-17T22:49:12.594Z,15.00
2022-10-17T22:51:40.668Z,15.00
2022-10-17T22:54:08.788Z,15.00
2022-10-17T22:56:36.899Z,15.00
2022-10-17T22:59:07.087Z,15.00
2022-10-17T23:01:35.240Z,15.00
2022-10-17T23:04:03.381Z,15.00
2022-10-17T23:06:32.868Z,15.00
2022-10-17T23:09:03.635Z,15.00
2022-10-17T23:11:34.203Z,15.00
2022-10-17T23:14:02.271Z,14.90
2022-10-17T23:16:32.424Z,14.90
2022-10-17T23:19:02.828Z,14.90
2022-10-17T23:21:34.582Z,14.90
2022-10-17T23:24:02.682Z,14.90
2022-10-17T23:26:32.855Z,14.90
2022-10-17T23:29:03.307Z,14.90
2022-10-17T23:31:34.074Z,14.90
2022-10-17T23:34:02.186Z,14.80
2022-10-17T23:39:08.039Z,14.80
2022-10-17T23:41:36.350Z,14.80
2022-10-17T23:44:04.844Z,14.80
2022-10-17T23:46:33.244Z,14.80
2022-10-17T23:49:01.338Z,14.80
2022-10-17T23:51:31.635Z,14.70
2022-10-17T23:54:01.925Z,14.80
2022-10-17T23:56:33.893Z,14.70
2022-10-17T23:59:01.994Z,14.70
